createdAt,value
2024-03-07T00:03:54.912Z,17.30
2024-03-07T00:08:57.919Z,17.33
2024-03-07T00:14:00.909Z,16.35
2024-03-07T00:19:05.265Z,17.23
2024-03-07T00:24:08.347Z,16.05
2024-03-07T00:29:11.711Z,17.00
2024-03-07T00:34:24.493Z,17.10
2024-03-07T00:39:29.133Z,17.35
2024-03-07T00:44:32.305Z,18.10
2024-03-07T00:49:37.480Z,17.85
2024-03-07T00:54:40.459Z,17.92
2024-03-07T00:59:44.227Z,17.02
2024-03-07T01:04:49.636Z,18.80
2024-03-07T01:09:52.792Z,18.90
2024-03-07T01:14:55.933Z,18.85
2024-03-07T01:26:47.019Z,19.40
2024-03-07T01:31:50.297Z,21.92
2024-03-07T01:36:53.151Z,20.73
2024-03-07T01:41:57.984Z,20.65
2024-03-07T01:47:04.576Z,22.05
2024-03-07T01:52:08.182Z,20.48
2024-03-07T01:57:14.379Z,22.05
2024-03-07T02:02:17.370Z,22.48
2024-03-07T02:07:20.351Z,19.52
2024-03-07T02:12:25.478Z,20.20
2024-03-07T02:17:29.084Z,20.15
2024-03-07T02:22:33.366Z,20.52
2024-03-07T02:27:36.211Z,20.00
2024-03-07T02:32:39.598Z,20.63
2024-03-07T02:37:43.946Z,20.48
2024-03-07T02:42:46.808Z,22.15
2024-03-07T02:47:49.776Z,20.42
2024-03-07T02:52:54.483Z,20.83
2024-03-07T02:57:58.779Z,22.13
2024-03-07T03:03:01.751Z,20.95
2024-03-07T03:08:08.162Z,20.35
2024-03-07T03:13:11.214Z,21.35
2024-03-07T03:18:14.850Z,21.10
2024-03-07T03:23:21.432Z,20.55
2024-03-07T03:28:26.102Z,20.63
2024-03-07T03:33:29.124Z,20.63
2024-03-07T03:38:33.551Z,22.08
2024-03-07T03:43:36.586Z,22.52
2024-03-07T03:48:40.799Z,21.70
2024-03-07T03:53:45.519Z,21.17
2024-03-07T03:58:48.468Z,21.45
2024-03-07T04:03:51.823Z,21.27
2024-03-07T04:08:56.709Z,21.35
2024-03-07T04:13:59.764Z,22.50
2024-03-07T04:19:02.710Z,20.63
2024-03-07T04:24:07.296Z,21.45
2024-03-07T04:29:10.346Z,22.00
2024-03-07T04:34:13.333Z,22.48
2024-03-07T04:39:25.958Z,22.75
2024-03-07T04:44:29.073Z,22.35
2024-03-07T04:49:33.663Z,22.92
2024-03-07T04:54:38.291Z,22.30
2024-03-07T04:59:42.115Z,23.15
2024-03-07T05:04:45.193Z,21.77
2024-03-07T05:09:49.877Z,20.88
2024-03-07T05:14:53.062Z,21.88
2024-03-07T05:19:56.065Z,21.20
2024-03-07T05:25:00.735Z,22.30
2024-03-07T05:30:05.876Z,23.33
2024-03-07T05:35:12.340Z,23.60
2024-03-07T05:40:16.977Z,23.73
2024-03-07T05:45:20.216Z,24.83
2024-03-07T05:50:23.375Z,24.27
2024-03-07T05:55:27.895Z,25.73
2024-03-07T06:00:31.172Z,26.17
2024-03-07T06:05:34.221Z,24.98
2024-03-07T06:10:41.035Z,24.85
2024-03-07T06:15:47.083Z,25.88
2024-03-07T06:20:50.181Z,25.08
2024-03-07T06:25:55.514Z,25.30
2024-03-07T06:30:58.700Z,25.08
2024-03-07T06:36:02.246Z,23.58
2024-03-07T06:41:07.171Z,24.60
2024-03-07T06:46:10.832Z,24.40
2024-03-07T06:51:14.185Z,24.88
2024-03-07T06:56:19.708Z,24.55
2024-03-07T07:01:23.337Z,25.27
2024-03-07T07:06:27.250Z,23.88
2024-03-07T07:11:34.884Z,25.10
2024-03-07T07:16:42.279Z,23.38
2024-03-07T07:21:45.654Z,28.48
2024-03-07T07:26:50.482Z,29.42
2024-03-07T07:31:53.605Z,26.15
2024-03-07T07:36:56.604Z,18.05
2024-03-07T07:42:01.379Z,18.80
2024-03-07T07:47:05.014Z,20.23
2024-03-07T07:52:09.721Z,19.38
2024-03-07T07:57:14.226Z,19.63
2024-03-07T08:02:17.240Z,21.05
2024-03-07T08:07:20.941Z,22.23
2024-03-07T08:12:25.558Z,21.10
2024-03-07T08:17:29.115Z,21.73
2024-03-07T08:22:32.208Z,23.85
2024-03-07T08:27:36.573Z,22.90
2024-03-07T08:32:39.746Z,25.27
2024-03-07T08:37:43.937Z,24.85
2024-03-07T08:42:49.472Z,28.25
2024-03-07T08:47:55.555Z,27.67
2024-03-07T08:52:58.778Z,26.75
2024-03-07T08:58:03.092Z,25.80
2024-03-07T09:03:10.741Z,26.38
2024-03-07T09:08:14.846Z,27.27
2024-03-07T09:13:19.210Z,27.38
2024-03-07T09:18:23.938Z,27.05
2024-03-07T09:23:27.022Z,28.30
2024-03-07T09:28:31.338Z,28.70
2024-03-07T09:33:35.497Z,29.05
2024-03-07T09:38:38.506Z,26.70
2024-03-07T09:43:44.809Z,28.63
2024-03-07T09:48:48.739Z,27.23
2024-03-07T09:53:53.555Z,27.85
2024-03-07T09:59:00.356Z,28.80
2024-03-07T10:04:12.581Z,29.73
2024-03-07T10:09:15.641Z,28.85
2024-03-07T10:14:20.019Z,28.92
2024-03-07T10:19:23.277Z,29.10
2024-03-07T10:24:26.773Z,27.17
2024-03-07T10:29:31.303Z,27.27
2024-03-07T10:34:36.171Z,27.90
2024-03-07T10:39:39.143Z,27.83
2024-03-07T10:44:47.008Z,29.48
2024-03-07T10:50:01.812Z,29.30
2024-03-07T10:55:17.302Z,29.20
2024-03-07T11:00:37.632Z,27.20
2024-03-07T11:05:43.639Z,26.58
2024-03-07T11:10:48.440Z,24.48
2024-03-07T11:15:58.489Z,24.58
2024-03-07T11:21:01.634Z,25.52
2024-03-07T11:26:12.226Z,27.42
2024-03-07T11:31:17.881Z,23.27
2024-03-07T11:36:44.557Z,23.70
2024-03-07T11:41:49.340Z,22.30
2024-03-07T11:46:54.032Z,22.85
2024-03-07T11:51:57.019Z,25.08
2024-03-07T11:57:01.572Z,23.13
2024-03-07T12:02:06.272Z,23.33
2024-03-07T12:07:11.485Z,23.83
2024-03-07T12:12:14.713Z,23.63
2024-03-07T12:17:19.681Z,23.15
2024-03-07T12:22:26.387Z,25.63
2024-03-07T12:27:31.040Z,25.95
2024-03-07T12:32:35.900Z,25.15
2024-03-07T12:37:39.092Z,24.58
2024-03-07T12:42:44.453Z,24.10
2024-03-07T12:47:52.008Z,23.90
2024-03-07T12:52:56.385Z,23.40
2024-03-07T12:57:59.718Z,23.83
2024-03-07T13:03:04.410Z,26.15
2024-03-07T13:08:10.103Z,25.67
2024-03-07T13:13:13.316Z,23.60
2024-03-07T13:18:17.861Z,23.40
2024-03-07T13:23:21.314Z,23.13
2024-03-07T13:28:26.144Z,23.67
2024-03-07T13:33:30.871Z,23.40
2024-03-07T13:38:34.662Z,23.88
2024-03-07T13:43:38.840Z,22.90
2024-03-07T13:48:44.519Z,22.50
2024-03-07T13:53:52.093Z,23.33
2024-03-07T13:59:16.643Z,22.08
2024-03-07T14:04:47.986Z,24.42
2024-03-07T14:10:22.638Z,22.58
2024-03-07T14:15:57.925Z,21.80
2024-03-07T14:21:17.783Z,23.70
2024-03-07T14:26:52.219Z,23.58
2024-03-07T14:31:55.305Z,22.95
2024-03-07T14:37:11.538Z,22.80
2024-03-07T14:42:16.808Z,23.80
2024-03-07T14:47:22.577Z,24.08
2024-03-07T14:52:30.978Z,25.10
2024-03-07T14:57:33.968Z,22.92
2024-03-07T15:02:38.657Z,23.27
2024-03-07T15:07:43.148Z,23.33
2024-03-07T15:12:47.916Z,22.40
2024-03-07T15:17:51.463Z,22.92
2024-03-07T15:22:59.052Z,23.63
2024-03-07T15:28:02.612Z,22.33
2024-03-07T15:33:06.937Z,20.08
2024-03-07T15:38:12.279Z,18.92
2024-03-07T15:43:15.417Z,21.10
2024-03-07T15:48:21.825Z,19.85
2024-03-07T15:53:28.373Z,18.52
2024-03-07T15:58:31.694Z,19.83
2024-03-07T16:03:34.732Z,19.63
2024-03-07T16:08:40.556Z,19.73
2024-03-07T16:13:45.094Z,21.42
2024-03-07T16:18:48.128Z,19.05
2024-03-07T16:23:54.809Z,17.98
2024-03-07T16:28:57.854Z,18.52
2024-03-07T16:34:01.115Z,19.27
2024-03-07T16:39:13.084Z,19.85
2024-03-07T16:44:16.183Z,20.20
2024-03-07T16:49:19.303Z,20.48
2024-03-07T16:54:24.893Z,20.92
2024-03-07T16:59:27.933Z,20.27
2024-03-07T17:04:30.925Z,21.05
2024-03-07T17:09:35.486Z,21.80
2024-03-07T17:14:44.845Z,21.38
2024-03-07T17:19:48.731Z,21.77
2024-03-07T17:24:54.069Z,22.42
2024-03-07T17:29:57.432Z,22.73
2024-03-07T17:35:01.097Z,20.33
2024-03-07T17:40:06.386Z,20.17
2024-03-07T17:45:12.318Z,19.10
2024-03-07T17:50:20.506Z,19.15
2024-03-07T17:55:25.415Z,17.98
2024-03-07T18:00:28.858Z,18.55
2024-03-07T18:05:32.101Z,16.33
2024-03-07T18:10:37.148Z,17.33
2024-03-07T18:15:40.812Z,16.45
2024-03-07T18:20:45.978Z,17.70
2024-03-07T18:25:52.216Z,18.25
2024-03-07T18:31:01.081Z,19.23
2024-03-07T18:36:07.103Z,19.25
2024-03-07T18:41:13.114Z,20.92
2024-03-07T18:46:17.822Z,19.30
2024-03-07T18:51:24.167Z,19.10
2024-03-07T18:56:28.963Z,18.85
2024-03-07T19:01:33.106Z,17.00
2024-03-07T19:06:39.928Z,18.45
2024-03-07T19:11:49.298Z,17.98
2024-03-07T19:16:54.199Z,17.48
2024-03-07T19:21:57.373Z,15.77
2024-03-07T19:27:02.028Z,17.60
2024-03-07T19:32:05.549Z,15.88
2024-03-07T19:37:10.656Z,14.85
2024-03-07T19:42:15.123Z,15.50
2024-03-07T19:47:18.193Z,15.55
2024-03-07T19:52:21.408Z,15.65
2024-03-07T19:57:28.966Z,15.35
2024-03-07T20:02:34.826Z,16.40
2024-03-07T20:07:38.670Z,15.68
2024-03-07T20:12:44.562Z,15.95
2024-03-07T20:17:49.702Z,15.63
2024-03-07T20:22:54.668Z,16.35
2024-03-07T20:27:59.199Z,14.77
2024-03-07T20:33:02.553Z,16.73
2024-03-07T20:38:06.991Z,17.08
2024-03-07T20:43:12.046Z,16.42
2024-03-07T20:48:15.357Z,17.83
2024-03-07T20:53:18.591Z,17.65
2024-03-07T20:58:23.413Z,17.80
2024-03-07T21:03:28.486Z,16.38
2024-03-07T21:08:35.481Z,16.13
2024-03-07T21:13:41.956Z,17.48
2024-03-07T21:18:45.068Z,15.80
2024-03-07T21:23:49.049Z,17.15
2024-03-07T21:28:55.169Z,18.15
2024-03-07T21:33:58.770Z,17.13
2024-03-07T21:39:02.218Z,16.88
2024-03-07T21:44:10.005Z,17.70
2024-03-07T21:49:13.435Z,17.70
2024-03-07T21:54:18.477Z,17.52
2024-03-07T21:59:22.996Z,17.20
2024-03-07T22:04:26.372Z,20.38
2024-03-07T22:09:29.729Z,18.05
2024-03-07T22:14:35.324Z,18.55
2024-03-07T22:19:39.471Z,19.30
2024-03-07T22:24:46.461Z,18.73
2024-03-07T22:29:51.030Z,17.02
2024-03-07T22:34:55.337Z,18.42
2024-03-07T22:39:58.485Z,17.67
2024-03-07T22:45:03.335Z,18.60
2024-03-07T22:50:13.762Z,18.05
2024-03-07T22:55:26.461Z,17.65
2024-03-07T23:00:33.278Z,19.38
2024-03-07T23:05:36.690Z,18.05
2024-03-07T23:10:39.766Z,19.65
2024-03-07T23:15:44.433Z,18.63
2024-03-07T23:20:47.509Z,18.65
2024-03-07T23:25:50.716Z,19.88
2024-03-07T23:30:55.055Z,18.85
2024-03-07T23:35:58.024Z,19.25
2024-03-07T23:41:02.129Z,19.60
2024-03-07T23:46:06.646Z,21.08
2024-03-07T23:51:11.587Z,20.63
2024-03-07T23:56:14.667Z,20.17
